Time;durP1;ratioP1;P1;durP2;ratioP2;P2;SDS_P1;SDS_P2;PMS_P1;PMS_P2;Temp;Humidity;BMP_temperature;BMP_pressure;BME280_temperature;BME280_humidity;BME280_pressure;Samples;Min_cycle;Max_cycle;Signal;HPM_P1;HPM_P2
2022/01/23 00:00:32;;;;;;;;;40.75;32.00;;;;;7.36;67.20;103347.78;5010513;28;45394;-61
2022/01/23 00:03:00;;;;;;;;;38.00;29.00;;;;;7.39;67.20;103350.38;5020163;28;45292;-61
2022/01/23 00:05:35;;;;;;;;;46.00;37.75;;;;;7.42;66.96;103346.88;5011233;28;45384;-61
2022/01/23 00:08:01;;;;;;;;;42.75;38.00;;;;;7.47;67.23;103348.59;5004048;28;45257;-61
2022/01/23 00:10:27;;;;;;;;;53.25;38.25;;;;;7.48;66.93;103352.09;5012692;28;45289;-61
2022/01/23 00:13:06;;;;;;;;;47.75;38.25;;;;;7.49;67.04;103357.31;5021868;28;46208;-61
2022/01/23 00:18:16;;;;;;;;;53.25;38.50;;;;;7.44;66.75;103353.88;5010030;28;45380;-61
2022/01/23 00:20:41;;;;;;;;;43.75;32.50;;;;;7.39;66.82;103345.13;5022073;28;45561;-61
2022/01/23 00:23:15;;;;;;;;;43.50;37.50;;;;;7.40;66.93;103346.88;5021709;28;45147;-61
2022/01/23 00:31:09;;;;;;;;;49.00;39.50;;;;;7.48;66.79;103333.72;5021758;28;45316;-61
2022/01/23 00:33:34;;;;;;;;;54.25;42.00;;;;;7.51;66.88;103337.22;5021388;28;45952;-61
2022/01/23 00:36:00;;;;;;;;;41.25;34.00;;;;;7.48;66.72;103339.84;5013484;28;45369;-61
2022/01/23 00:38:25;;;;;;;;;52.25;38.25;;;;;7.46;67.10;103332.88;5014962;28;45502;-61
2022/01/23 00:40:50;;;;;;;;;52.75;37.75;;;;;7.48;66.99;103331.09;5014559;28;45308;-61
2022/01/23 00:43:30;;;;;;;;;52.00;38.75;;;;;7.49;66.82;103332.84;5001606;28;45242;-61
2022/01/23 00:46:09;;;;;;;;;46.25;36.75;;;;;7.48;66.89;103325.88;5000680;28;45444;-61
2022/01/23 00:48:40;;;;;;;;;48.00;38.00;;;;;7.50;66.97;103331.97;5001701;28;45365;-61
2022/01/23 00:51:05;;;;;;;;;52.00;39.25;;;;;7.47;66.82;103332.00;5001823;28;45375;-61
2022/01/23 00:53:31;;;;;;;;;43.25;36.00;;;;;7.46;66.67;103325.88;5001273;28;45318;-61
2022/01/23 00:55:58;;;;;;;;;48.00;36.00;;;;;7.47;66.73;103324.13;5001559;28;45384;-61
2022/01/23 00:58:24;;;;;;;;;53.25;38.50;;;;;7.48;66.75;103318.00;5001475;28;45388;-61
2022/01/23 01:00:49;;;;;;;;;45.50;33.75;;;;;7.51;66.75;103316.25;5001489;28;45495;-61
2022/01/23 01:03:15;;;;;;;;;44.25;31.00;;;;;7.55;66.99;103317.09;5001226;28;46043;-61
2022/01/23 01:05:40;;;;;;;;;48.75;36.00;;;;;7.56;66.33;103324.94;5001420;28;45293;-61
2022/01/23 01:08:06;;;;;;;;;37.00;30.25;;;;;7.54;66.28;103316.22;5001325;28;45240;-61
2022/01/23 01:10:44;;;;;;;;;41.50;32.75;;;;;7.50;66.54;103317.13;5001475;28;45234;-61
2022/01/23 01:13:12;;;;;;;;;49.50;30.25;;;;;7.48;66.55;103324.09;5001050;28;45179;-61
2022/01/23 01:32:07;;;;;;;;;43.50;34.00;;;;;7.45;66.68;103318.88;5020934;28;45403;-61
2022/01/23 01:34:41;;;;;;;;;33.25;29.00;;;;;7.46;66.58;103319.75;5020787;28;45318;-61
2022/01/23 01:37:10;;;;;;;;;38.00;32.50;;;;;7.44;66.47;103321.53;5020398;28;45301;-61
2022/01/23 01:39:35;;;;;;;;;45.75;30.00;;;;;7.43;66.30;103319.78;5020546;28;45570;-61
2022/01/23 01:42:01;;;;;;;;;34.00;30.50;;;;;7.44;66.23;103322.41;5004520;28;45203;-61
2022/01/23 01:44:27;;;;;;;;;36.25;25.25;;;;;7.42;66.59;103328.50;5001058;28;45265;-61
2022/01/23 01:46:53;;;;;;;;;34.50;28.00;;;;;7.37;66.14;103310.19;5000637;28;45224;-61
2022/01/23 01:49:31;;;;;;;;;42.75;31.25;;;;;7.35;66.15;103318.97;5001074;28;45206;-61
2022/01/23 01:51:59;;;;;;;;;37.75;26.00;;;;;7.32;66.37;103311.94;5000903;28;45381;-61
2022/01/23 01:54:27;;;;;;;;;49.50;27.25;;;;;7.33;65.92;103308.44;5000818;28;46430;-61
2022/01/23 01:57:05;;;;;;;;;36.75;25.50;;;;;7.36;65.94;103303.22;5015858;28;45204;-61
2022/01/23 02:10:26;;;;;;;;;36.75;28.50;;;;;7.41;65.96;103303.16;5004341;28;45426;-61
2022/01/23 02:18:14;;;;;;;;;33.25;25.50;;;;;7.37;66.02;103304.06;5003811;28;45300;-59
2022/01/23 02:24:35;;;;;;;;;32.75;21.50;;;;;7.34;65.89;103299.69;5003795;28;45340;-61
2022/01/23 02:51:11;;;;;;;;;35.75;27.00;;;;;7.27;66.07;103261.31;5003542;28;45482;-60
2022/01/23 02:56:32;;;;;;;;;42.75;29.50;;;;;7.22;66.57;103263.06;5003694;28;45321;-60
2022/01/23 02:59:00;;;;;;;;;36.25;30.75;;;;;7.19;66.07;103258.72;5011173;28;46068;-61
2022/01/23 03:01:32;;;;;;;;;35.75;28.25;;;;;7.21;66.30;103256.09;5023016;28;45238;-60
2022/01/23 03:04:02;;;;;;;;;29.00;24.75;;;;;7.20;66.25;103264.84;5021935;28;45286;-60
2022/01/23 03:06:56;;;;;;;;;33.50;28.00;;;;;7.18;66.61;103262.19;5023068;28;45277;-61
2022/01/23 03:33:41;;;;;;;;;33.00;23.25;;;;;7.26;66.41;103244.69;5012922;28;45514;-61
2022/01/23 03:36:07;;;;;;;;;36.00;23.50;;;;;7.24;66.20;103241.19;5022856;28;45302;-61
2022/01/23 03:38:32;;;;;;;;;33.25;25.75;;;;;7.24;66.08;103241.19;5022353;28;45530;-61
2022/01/23 03:40:58;;;;;;;;;34.50;25.50;;;;;7.22;66.39;103250.84;5014457;28;45186;-61
2022/01/23 03:43:30;;;;;;;;;28.25;25.25;;;;;7.20;66.50;103242.13;5002584;28;45356;-61
2022/01/23 03:46:22;;;;;;;;;34.25;26.75;;;;;7.20;66.24;103242.13;5002647;28;45345;-61
2022/01/23 03:51:12;;;;;;;;;36.75;29.25;;;;;7.24;66.57;103240.34;5002465;28;45234;-61
2022/01/23 03:53:38;;;;;;;;;39.75;29.50;;;;;7.21;66.70;103238.59;5015963;28;45381;-62
2022/01/23 03:56:04;;;;;;;;;35.50;29.25;;;;;7.21;66.68;103237.75;5002681;28;45353;-61
2022/01/23 03:58:30;;;;;;;;;34.50;30.25;;;;;7.20;66.91;103233.38;5002462;28;45321;-61
2022/01/23 04:00:55;;;;;;;;;43.50;28.25;;;;;7.22;66.69;103242.09;5002078;28;45847;-61
2022/01/23 04:03:21;;;;;;;;;31.50;26.75;;;;;7.19;66.38;103242.13;5002192;28;45458;-60
2022/01/23 04:05:47;;;;;;;;;25.50;22.50;;;;;7.19;67.04;103234.25;5002623;28;45227;-61
2022/01/23 04:08:15;;;;;;;;;31.25;26.50;;;;;7.18;66.58;103228.13;5002194;28;45341;-61
2022/01/23 04:10:40;;;;;;;;;28.50;20.75;;;;;7.16;66.71;103231.63;5002194;28;46100;-61
2022/01/23 04:13:17;;;;;;;;;28.00;20.25;;;;;7.13;66.29;103227.28;5002222;28;45263;-61
2022/01/23 04:15:53;;;;;;;;;26.50;19.00;;;;;7.10;66.44;103221.19;5015037;28;45390;-61
2022/01/23 04:19:06;;;;;;;;;27.50;21.75;;;;;7.09;67.00;103212.44;5009951;28;45323;-61
2022/01/23 04:45:35;;;;;;;;;30.50;23.00;;;;;6.93;67.02;103231.75;5021521;28;45245;-61
2022/01/23 05:01:58;;;;;;;;;28.00;24.25;;;;;7.02;66.52;103229.06;5021239;28;45393;-62
2022/01/23 05:04:35;;;;;;;;;36.50;26.50;;;;;6.95;65.94;103245.69;5007597;28;45399;-61
2022/01/23 05:07:09;;;;;;;;;25.75;20.50;;;;;6.88;66.21;103246.63;5021084;28;45329;-60
2022/01/23 05:09:35;;;;;;;;;32.00;23.75;;;;;6.85;66.84;103238.75;5021252;28;45466;-60
2022/01/23 05:12:04;;;;;;;;;32.50;28.75;;;;;6.85;66.57;103228.28;5021330;28;45610;-61
2022/01/23 05:14:42;;;;;;;;;31.00;23.00;;;;;6.86;66.82;103241.38;5020877;28;45517;-61
2022/01/23 05:17:10;;;;;;;;;32.00;25.25;;;;;6.90;66.58;103230.00;5009696;28;45459;-61
2022/01/23 05:19:37;;;;;;;;;35.25;28.00;;;;;6.93;66.66;103231.75;5001149;28;45515;-61
2022/01/23 05:22:19;;;;;;;;;36.25;24.75;;;;;6.96;66.52;103243.09;5001190;28;45529;-61
2022/01/23 05:24:52;;;;;;;;;25.50;19.25;;;;;7.00;66.55;103244.81;5008445;28;46685;-61
2022/01/23 05:27:21;;;;;;;;;38.25;27.75;;;;;7.03;66.70;103249.19;5020814;28;45359;-61
2022/01/23 05:29:47;;;;;;;;;23.75;16.50;;;;;6.99;66.85;103245.69;5021094;28;45217;-61
2022/01/23 05:32:13;;;;;;;;;37.25;25.25;;;;;6.96;66.47;103245.72;5020573;28;45248;-61
2022/01/23 05:34:39;;;;;;;;;34.25;25.75;;;;;6.92;66.71;103248.34;5020803;28;46503;-61
2022/01/23 05:37:04;;;;;;;;;39.00;31.00;;;;;6.93;66.59;103244.84;5020664;28;45161;-60
2022/01/23 05:39:32;;;;;;;;;23.00;19.25;;;;;6.93;66.49;103250.09;5020607;28;45236;-61
2022/01/23 05:42:05;;;;;;;;;33.25;24.00;;;;;6.91;66.36;103238.75;5005177;28;45352;-61
2022/01/23 05:44:30;;;;;;;;;36.25;24.75;;;;;6.89;66.26;103237.88;5009737;28;46945;-60
2022/01/23 05:46:56;;;;;;;;;30.25;21.50;;;;;6.89;66.45;103244.00;5003813;28;45439;-60
2022/01/23 05:49:22;;;;;;;;;26.00;21.00;;;;;6.87;66.92;103239.63;5000967;28;45442;-60
2022/01/23 05:51:48;;;;;;;;;25.25;16.50;;;;;6.87;66.57;103250.09;5000759;28;45497;-60
2022/01/23 05:54:13;;;;;;;;;40.25;20.25;;;;;6.84;66.20;103237.03;5000977;28;46269;-60
2022/01/23 05:56:39;;;;;;;;;33.25;28.00;;;;;6.85;66.74;103242.25;5000797;28;45347;-60
2022/01/23 05:59:05;;;;;;;;;29.25;25.50;;;;;6.86;66.92;103245.75;5000835;28;45319;-60
2022/01/23 06:01:30;;;;;;;;;34.25;25.50;;;;;6.84;66.39;103243.13;5000559;28;45442;-60
2022/01/23 06:03:56;;;;;;;;;31.50;26.00;;;;;6.83;66.60;103257.09;5000610;28;45312;-60
2022/01/23 06:06:21;;;;;;;;;28.25;19.50;;;;;6.81;66.75;103251.00;5000598;28;45410;-60
2022/01/23 06:08:47;;;;;;;;;30.00;20.50;;;;;6.84;66.24;103247.50;5000628;28;45274;-60
2022/01/23 06:11:12;;;;;;;;;31.00;20.25;;;;;6.85;66.71;103242.25;5000680;28;45507;-60
2022/01/23 06:13:38;;;;;;;;;24.50;20.00;;;;;6.83;66.12;103254.50;5000548;28;45890;-60
2022/01/23 06:16:03;;;;;;;;;23.25;20.25;;;;;6.76;66.34;103255.38;5013042;28;45466;-60
2022/01/23 06:18:29;;;;;;;;;19.25;14.75;;;;;6.76;66.24;103254.50;5000780;28;45369;-60
2022/01/23 06:20:54;;;;;;;;;24.50;17.25;;;;;6.77;65.82;103251.88;5000676;28;45404;-60
2022/01/23 06:23:20;;;;;;;;;24.00;17.00;;;;;6.77;65.75;103246.66;5000235;28;45986;-60
2022/01/23 06:25:48;;;;;;;;;18.75;13.50;;;;;6.75;66.16;103248.41;5000224;28;45323;-60
2022/01/23 06:28:35;;;;;;;;;21.50;15.00;;;;;6.78;65.70;103252.75;5000758;28;45290;-60
2022/01/23 06:31:01;;;;;;;;;19.50;14.50;;;;;6.76;65.64;103241.41;5000332;28;45463;-60
2022/01/23 06:33:26;;;;;;;;;19.00;15.25;;;;;6.77;65.85;103246.66;5000423;28;45259;-60
2022/01/23 06:35:52;;;;;;;;;20.50;16.75;;;;;6.76;65.65;103247.53;5000408;28;45294;-60
2022/01/23 06:38:17;;;;;;;;;16.50;14.25;;;;;6.76;65.68;103247.53;5000344;28;45233;-60
2022/01/23 06:40:43;;;;;;;;;25.50;18.50;;;;;6.75;66.06;103244.91;5010982;28;45411;-60
2022/01/23 06:43:08;;;;;;;;;20.25;16.50;;;;;6.77;66.39;103254.50;5000284;28;45852;-60
2022/01/23 06:45:34;;;;;;;;;20.75;15.00;;;;;6.80;66.02;103249.28;5002485;28;45151;-60
2022/01/23 06:47:59;;;;;;;;;19.75;17.75;;;;;6.81;66.73;103242.28;5003758;28;45314;-60
2022/01/23 06:50:25;;;;;;;;;22.00;17.00;;;;;6.79;65.85;103250.13;5003538;28;45387;-60
2022/01/23 06:52:50;;;;;;;;;26.75;17.00;;;;;6.79;66.31;103239.63;5003232;28;45980;-60
2022/01/23 06:55:17;;;;;;;;;28.50;16.75;;;;;6.78;66.20;103244.91;5003254;28;45285;-60
2022/01/23 06:57:43;;;;;;;;;23.50;19.25;;;;;6.79;66.31;103257.09;5003501;28;45399;-60
2022/01/23 07:00:09;;;;;;;;;15.25;14.00;;;;;6.75;66.02;103255.38;5003327;28;45313;-60
2022/01/23 07:02:34;;;;;;;;;17.75;15.00;;;;;6.69;66.23;103248.41;5003054;28;45422;-60
2022/01/23 07:05:00;;;;;;;;;20.75;16.75;;;;;6.71;67.01;103252.78;5003039;28;45377;-60
2022/01/23 07:07:26;;;;;;;;;20.00;16.75;;;;;6.74;66.38;103261.50;5003114;28;45614;-60
2022/01/23 07:09:51;;;;;;;;;17.75;13.50;;;;;6.77;67.03;103266.72;5003234;28;45328;-60
2022/01/23 07:12:16;;;;;;;;;22.75;14.25;;;;;6.77;66.77;103257.13;5003090;28;45525;-60
2022/01/23 07:14:42;;;;;;;;;17.50;12.25;;;;;6.81;66.72;103263.25;5007644;28;45427;-60
2022/01/23 07:17:07;;;;;;;;;21.00;15.75;;;;;6.82;66.90;103264.97;5011443;28;45507;-60
2022/01/23 07:19:33;;;;;;;;;19.75;13.50;;;;;6.82;66.80;103268.47;5002962;28;45171;-60
2022/01/23 07:21:58;;;;;;;;;14.25;9.50;;;;;6.79;66.38;103264.97;5002749;28;45301;-60
2022/01/23 07:24:24;;;;;;;;;17.25;14.25;;;;;6.78;66.46;103258.84;5002875;28;45321;-60
2022/01/23 07:26:49;;;;;;;;;19.25;15.00;;;;;6.79;66.07;103257.09;5003072;28;45259;-60
2022/01/23 07:29:17;;;;;;;;;24.25;17.75;;;;;6.77;66.32;103264.09;5002969;28;45233;-60
2022/01/23 07:31:55;;;;;;;;;19.50;13.75;;;;;6.76;66.61;103265.00;5002709;28;45359;-60
2022/01/23 07:34:21;;;;;;;;;18.00;13.75;;;;;6.76;66.08;103263.25;5002689;28;45473;-60
2022/01/23 07:36:46;;;;;;;;;18.00;12.75;;;;;6.74;65.94;103259.75;5002745;28;45596;-60
2022/01/23 07:39:12;;;;;;;;;23.75;17.25;;;;;6.71;65.87;103270.22;5006987;28;45540;-60
2022/01/23 07:41:37;;;;;;;;;18.25;12.75;;;;;6.65;65.92;103260.66;5009456;28;46200;-60
2022/01/23 07:44:03;;;;;;;;;14.00;13.00;;;;;6.65;65.96;103265.03;5002899;28;45199;-60
2022/01/23 07:46:29;;;;;;;;;21.25;11.75;;;;;6.67;66.47;103251.03;5002696;28;45308;-60
2022/01/23 07:48:54;;;;;;;;;19.00;16.75;;;;;6.70;66.43;103248.41;5017987;28;45582;-60
2022/01/23 07:51:20;;;;;;;;;21.50;13.75;;;;;6.75;66.18;103258.00;5002317;28;45368;-60
2022/01/23 07:53:45;;;;;;;;;17.00;14.25;;;;;6.77;66.22;103262.34;5002253;28;45286;-60
2022/01/23 07:56:11;;;;;;;;;23.25;15.00;;;;;6.81;66.17;103260.63;5002526;28;45272;-60
2022/01/23 07:58:36;;;;;;;;;16.00;14.75;;;;;6.82;65.84;103265.84;5017688;28;45332;-60
2022/01/23 08:01:02;;;;;;;;;19.25;14.50;;;;;6.82;66.20;103272.84;5002196;28;46554;-60
2022/01/23 08:03:27;;;;;;;;;14.00;13.50;;;;;6.79;65.75;103273.69;5002157;28;45479;-60
2022/01/23 08:05:53;;;;;;;;;16.50;14.50;;;;;6.78;66.08;103278.94;5001218;28;45304;-60
2022/01/23 08:08:18;;;;;;;;;18.25;11.25;;;;;6.74;65.70;103292.94;5002076;28;45528;-60
2022/01/23 08:10:44;;;;;;;;;18.00;12.25;;;;;6.72;65.74;103292.97;5002109;28;46270;-60
2022/01/23 08:13:09;;;;;;;;;15.25;12.00;;;;;6.72;65.71;103287.72;5001968;28;45395;-60
2022/01/23 08:15:35;;;;;;;;;21.00;12.75;;;;;6.69;66.04;103300.78;5002362;28;45434;-60
2022/01/23 08:18:05;;;;;;;;;24.75;17.00;;;;;6.69;66.24;103293.81;5002028;28;45422;-60
2022/01/23 08:20:33;;;;;;;;;19.50;14.50;;;;;6.68;66.01;103293.81;5013366;28;46324;-60
2022/01/23 08:23:04;;;;;;;;;18.00;15.25;;;;;6.69;66.51;103301.66;5002067;28;45374;-61
2022/01/23 08:25:30;;;;;;;;;22.75;21.25;;;;;6.69;66.36;103292.94;5002126;28;45337;-61
2022/01/23 08:27:56;;;;;;;;;21.25;18.00;;;;;6.69;65.85;103301.66;5002252;28;45186;-61
2022/01/23 08:30:22;;;;;;;;;33.75;18.00;;;;;6.72;66.20;103301.69;5001956;28;45384;-61
2022/01/23 08:32:48;;;;;;;;;23.50;18.00;;;;;6.78;66.25;103307.75;5001892;28;45331;-61
2022/01/23 08:35:14;;;;;;;;;23.75;17.50;;;;;6.79;65.84;103307.75;5002037;28;45522;-61
2022/01/23 08:37:39;;;;;;;;;26.50;17.25;;;;;6.82;65.85;103309.50;5001671;28;45398;-61
2022/01/23 08:40:16;;;;;;;;;20.75;18.50;;;;;6.81;65.49;103295.53;5013082;28;45404;-61
2022/01/23 08:42:42;;;;;;;;;21.00;16.75;;;;;6.83;65.49;103299.03;5001781;28;45485;-61
2022/01/23 08:45:08;;;;;;;;;20.75;17.50;;;;;6.83;65.88;103306.00;5001843;28;45277;-61
2022/01/23 08:47:33;;;;;;;;;23.25;19.50;;;;;6.84;65.78;103297.28;5008844;28;45214;-61
2022/01/23 08:49:59;;;;;;;;;25.50;22.50;;;;;6.82;66.02;103297.28;5006617;28;45332;-61
2022/01/23 08:52:24;;;;;;;;;32.50;20.25;;;;;6.83;65.82;103293.78;5001374;28;45347;-63
2022/01/23 08:54:51;;;;;;;;;28.00;18.75;;;;;6.82;65.57;103296.41;5001681;28;45224;-61
2022/01/23 08:57:19;;;;;;;;;27.75;22.50;;;;;6.82;65.59;103299.03;5001692;28;45339;-61
2022/01/23 08:59:45;;;;;;;;;26.75;22.50;;;;;6.81;65.51;103297.31;5001436;28;46424;-61
2022/01/23 09:02:11;;;;;;;;;25.75;20.75;;;;;6.79;65.52;103301.66;5001362;28;45403;-61
2022/01/23 09:04:37;;;;;;;;;26.75;23.00;;;;;6.77;65.44;103304.28;5002758;28;45387;-61
2022/01/23 09:07:03;;;;;;;;;24.25;18.25;;;;;6.78;65.61;103300.78;5001144;28;45271;-61
2022/01/23 09:09:31;;;;;;;;;30.75;25.00;;;;;6.77;65.51;103303.41;5001171;28;46539;-61
2022/01/23 09:14:23;;;;;;;;;31.25;23.00;;;;;6.79;65.82;103310.38;5001224;28;45331;-61
2022/01/23 09:16:52;;;;;;;;;28.00;26.25;;;;;6.80;65.64;103308.66;5001449;28;45457;-61
2022/01/23 09:19:19;;;;;;;;;27.50;21.25;;;;;6.79;65.55;103306.88;5000928;28;45951;-61
2022/01/23 09:21:49;;;;;;;;;31.00;23.50;;;;;6.79;66.22;103302.50;5001030;28;45175;-61
2022/01/23 09:24:15;;;;;;;;;29.00;22.25;;;;;6.80;65.58;103309.53;5001213;28;45609;-61
2022/01/23 09:26:41;;;;;;;;;29.25;19.75;;;;;6.77;65.48;103306.91;5001310;28;45302;-61
2022/01/23 09:29:14;;;;;;;;;25.75;19.50;;;;;6.76;65.14;103301.66;5000745;28;45991;-61
2022/01/23 09:31:49;;;;;;;;;20.25;19.00;;;;;6.76;65.40;103306.91;5000927;28;45439;-61
2022/01/23 09:34:20;;;;;;;;;22.50;15.25;;;;;6.80;65.75;103313.91;5001147;28;45471;-61
2022/01/23 09:36:45;;;;;;;;;26.75;20.00;;;;;6.78;65.61;103311.25;5000834;28;45253;-61
2022/01/23 09:39:15;;;;;;;;;25.25;21.75;;;;;6.76;65.77;103314.75;5004690;28;45336;-61
2022/01/23 09:41:45;;;;;;;;;23.75;22.50;;;;;6.77;65.72;103311.25;5008306;28;45427;-61
2022/01/23 09:44:12;;;;;;;;;30.00;23.00;;;;;6.80;65.46;103316.50;5000913;28;45273;-61
2022/01/23 09:46:38;;;;;;;;;24.25;18.75;;;;;6.78;65.76;103313.88;5000864;28;45384;-61
2022/01/23 09:49:04;;;;;;;;;22.75;19.50;;;;;6.76;65.27;103313.00;5000598;28;45340;-61
2022/01/23 09:51:33;;;;;;;;;26.50;22.50;;;;;6.76;65.17;103309.53;5000747;28;45349;-61
2022/01/23 09:53:59;;;;;;;;;25.25;22.50;;;;;6.77;65.58;103304.28;5007650;28;45297;-61
2022/01/23 09:56:27;;;;;;;;;28.50;20.75;;;;;6.80;65.21;103308.66;5020746;28;45649;-61
2022/01/23 09:59:00;;;;;;;;;25.75;19.50;;;;;6.82;65.88;103318.25;5020207;28;45444;-61
2022/01/23 10:01:26;;;;;;;;;26.75;19.50;;;;;6.83;65.72;103319.13;5019840;28;45370;-61
2022/01/23 10:03:52;;;;;;;;;27.75;20.50;;;;;6.83;65.38;103313.88;5011686;28;45300;-61
2022/01/23 10:06:17;;;;;;;;;23.50;18.25;;;;;6.82;65.37;103312.13;5016286;28;45380;-61
2022/01/23 10:08:43;;;;;;;;;20.00;19.50;;;;;6.83;64.78;103308.63;5020390;28;45359;-61
2022/01/23 10:11:12;;;;;;;;;21.25;16.00;;;;;6.83;65.24;103309.50;5020137;28;45478;-61
2022/01/23 10:13:40;;;;;;;;;26.00;18.75;;;;;6.87;64.93;103315.59;5020540;28;45347;-61
2022/01/23 10:16:06;;;;;;;;;18.50;14.25;;;;;6.90;65.21;103311.22;5017326;28;45227;-61
2022/01/23 10:18:32;;;;;;;;;28.75;21.25;;;;;6.91;65.53;103318.22;5000311;28;45291;-61
2022/01/23 10:20:57;;;;;;;;;23.50;19.50;;;;;6.91;65.41;103314.72;5003479;28;45523;-61
2022/01/23 10:23:24;;;;;;;;;22.75;18.75;;;;;6.92;65.43;103324.31;5003759;28;45333;-61
2022/01/23 10:25:51;;;;;;;;;25.00;18.75;;;;;6.95;65.18;103316.44;5003466;28;45339;-61
2022/01/23 10:28:21;;;;;;;;;22.25;17.75;;;;;7.00;65.57;103314.69;5003945;28;46174;-61
2022/01/23 10:30:50;;;;;;;;;25.00;16.50;;;;;7.03;65.47;103319.03;5003587;28;45367;-61
2022/01/23 10:33:23;;;;;;;;;21.50;15.25;;;;;6.99;65.05;103323.44;5003951;28;45446;-61
2022/01/23 10:35:56;;;;;;;;;26.25;20.75;;;;;6.96;65.07;103310.34;5003738;28;45507;-61
2022/01/23 10:38:23;;;;;;;;;20.50;17.50;;;;;6.95;65.39;103312.09;5003437;28;45468;-61
2022/01/23 10:41:01;;;;;;;;;22.50;17.25;;;;;6.94;65.74;103312.97;5014579;28;45692;-61
2022/01/23 10:48:58;;;;;;;;;21.25;16.00;;;;;6.99;65.47;103305.97;5010474;28;45274;-61
2022/01/23 10:51:35;;;;;;;;;17.75;13.25;;;;;7.00;65.24;103306.84;5023250;28;45232;-61
2022/01/23 10:54:11;;;;;;;;;28.75;19.00;;;;;7.00;65.29;103309.44;5023449;28;45315;-61
2022/01/23 10:56:55;;;;;;;;;24.50;16.00;;;;;7.03;65.60;103298.97;5023285;28;45336;-61
2022/01/23 10:59:21;;;;;;;;;18.50;17.25;;;;;7.04;65.60;103303.34;5023042;28;46153;-61
2022/01/23 11:02:08;;;;;;;;;20.25;14.75;;;;;7.07;65.04;103289.34;5023020;28;45357;-61
2022/01/23 11:04:49;;;;;;;;;22.25;17.00;;;;;7.04;65.19;103292.84;5009750;28;45439;-61
2022/01/23 11:07:15;;;;;;;;;19.50;13.25;;;;;7.03;65.49;103292.84;5023042;28;45483;-61
2022/01/23 11:09:41;;;;;;;;;25.00;17.75;;;;;6.99;65.59;103299.84;5022785;28;45217;-60
2022/01/23 11:12:28;;;;;;;;;32.75;19.00;;;;;6.96;65.09;103286.78;5023130;28;45261;-60
2022/01/23 11:17:57;;;;;;;;;27.75;19.25;;;;;6.91;65.49;103280.66;5029518;28;45441;-60
2022/01/23 11:20:34;;;;;;;;;21.00;17.25;;;;;6.91;64.95;103280.66;5022937;28;45701;-61
2022/01/23 11:23:23;;;;;;;;;22.00;18.75;;;;;6.87;65.12;103274.56;5022727;28;45267;-61
2022/01/23 11:25:51;;;;;;;;;26.25;18.25;;;;;6.83;65.41;103270.22;5022878;28;45313;-61
2022/01/23 11:28:17;;;;;;;;;25.75;19.25;;;;;6.81;65.55;103271.09;5023299;28;45265;-61
2022/01/23 11:30:46;;;;;;;;;25.75;19.25;;;;;6.82;65.20;103271.09;5022000;28;45305;-61
2022/01/23 11:33:18;;;;;;;;;22.25;19.25;;;;;6.90;65.80;103260.59;5022632;28;45320;-61
2022/01/23 11:35:47;;;;;;;;;13.00;8.50;;;;;6.94;65.27;103263.16;5022676;28;45530;-61
2022/01/23 11:38:17;;;;;;;;;19.75;15.75;;;;;6.97;65.32;103263.19;5022317;28;45230;-61
2022/01/23 11:54:48;;;;;;;;;16.25;14.50;;;;;6.94;64.20;103247.44;5022220;28;45399;-61
2022/01/23 11:57:36;;;;;;;;;18.50;15.75;;;;;6.97;64.42;103242.22;5022247;28;45391;-61
2022/01/23 12:00:07;;;;;;;;;12.25;11.00;;;;;6.99;64.40;103248.31;5022227;28;45622;-61
2022/01/23 12:02:37;;;;;;;;;20.50;16.00;;;;;7.00;64.06;103239.56;5021967;28;46242;-61
2022/01/23 12:07:39;;;;;;;;;26.00;19.75;;;;;7.04;64.27;103234.34;5021932;28;45246;-61
2022/01/23 12:10:21;;;;;;;;;19.25;13.50;;;;;7.10;64.12;103226.41;5022346;28;45253;-61
2022/01/23 12:12:50;;;;;;;;;21.50;14.50;;;;;7.13;63.93;103224.66;5021927;28;46450;-61
2022/01/23 12:18:28;;;;;;;;;18.75;15.75;;;;;7.12;64.12;103224.69;5002430;28;45339;-61
2022/01/23 12:20:54;;;;;;;;;16.00;14.75;;;;;7.11;63.76;103218.56;5002298;28;45348;-61
2022/01/23 12:23:20;;;;;;;;;13.25;12.25;;;;;7.16;63.90;103227.25;5001956;28;45373;-61
2022/01/23 12:25:48;;;;;;;;;16.25;15.00;;;;;7.18;63.71;103204.53;5001928;28;45243;-61
2022/01/23 12:28:43;;;;;;;;;18.25;12.25;;;;;7.20;63.81;103209.78;5002404;28;45324;-61
2022/01/23 12:31:28;;;;;;;;;18.75;15.00;;;;;7.17;63.61;103208.03;5009079;28;45349;-61
2022/01/23 12:34:01;;;;;;;;;17.75;16.25;;;;;7.18;63.58;103207.16;5021355;28;45487;-61
2022/01/23 12:36:33;;;;;;;;;19.50;12.00;;;;;7.18;63.69;103211.53;5021450;28;45322;-61
2022/01/23 12:39:08;;;;;;;;;14.25;11.25;;;;;7.20;64.16;103194.06;5021444;28;45209;-61
2022/01/23 12:41:39;;;;;;;;;22.00;16.00;;;;;7.23;64.10;103191.41;5008177;28;45189;-61
2022/01/23 12:44:29;;;;;;;;;16.75;13.50;;;;;7.23;63.74;103191.41;5013237;28;45485;-61
2022/01/23 12:46:59;;;;;;;;;12.50;12.00;;;;;7.22;63.49;103187.91;5001553;28;45364;-61
2022/01/23 12:49:31;;;;;;;;;16.00;13.50;;;;;7.20;63.95;103184.44;5001800;28;45305;-61
2022/01/23 12:52:09;;;;;;;;;22.75;18.75;;;;;7.20;64.12;103173.97;5001484;28;45557;-61
2022/01/23 12:54:51;;;;;;;;;21.50;14.25;;;;;7.20;63.87;103166.09;5001517;28;45543;-61
2022/01/23 12:57:38;;;;;;;;;20.25;14.25;;;;;7.24;63.77;103165.19;5010308;28;45315;-61
2022/01/23 13:00:16;;;;;;;;;20.00;18.25;;;;;7.27;64.17;103164.31;5021399;28;45422;-61
2022/01/23 13:02:48;;;;;;;;;20.50;16.50;;;;;7.27;63.57;103166.94;5021375;28;45366;-61
2022/01/23 13:05:16;;;;;;;;;23.75;16.50;;;;;7.28;63.69;103163.41;5001391;28;45347;-61
2022/01/23 13:10:27;;;;;;;;;27.00;19.25;;;;;7.32;63.79;103154.63;5001520;28;45246;-61
2022/01/23 13:18:17;;;;;;;;;24.75;16.00;;;;;7.35;64.28;103146.78;5003201;28;45423;-61
2022/01/23 13:26:40;;;;;;;;;23.00;14.75;;;;;7.41;63.94;103138.84;5000944;28;45352;-61
2022/01/23 13:32:05;;;;;;;;;26.50;19.50;;;;;7.40;64.01;103133.59;5001211;28;45313;-61
2022/01/23 13:34:37;;;;;;;;;25.75;18.50;;;;;7.39;63.70;103130.13;5008310;28;45269;-62
2022/01/23 13:37:06;;;;;;;;;20.25;18.50;;;;;7.39;64.08;103130.13;5020397;28;45539;-62
2022/01/23 13:39:45;;;;;;;;;21.25;17.25;;;;;7.38;63.89;103128.38;5020490;28;45414;-61
2022/01/23 13:42:27;;;;;;;;;27.50;22.50;;;;;7.41;63.67;103128.34;5003856;28;45170;-61
2022/01/23 13:53:25;;;;;;;;;24.75;22.50;;;;;7.38;63.88;103103.91;5021225;28;45305;-62
2022/01/23 13:58:39;;;;;;;;;28.25;19.00;;;;;7.39;63.76;103097.78;5022828;28;45296;-62
2022/01/23 14:03:53;;;;;;;;;21.25;19.00;;;;;7.40;63.66;103092.53;5015036;28;45463;-62
2022/01/23 14:06:20;;;;;;;;;28.75;22.75;;;;;7.40;63.95;103082.03;5002618;28;45296;-62
2022/01/23 14:09:07;;;;;;;;;18.25;16.50;;;;;7.44;63.73;103088.13;5004226;28;45242;-62
2022/01/23 14:11:33;;;;;;;;;30.25;25.75;;;;;7.43;63.86;103084.66;5002657;28;45329;-61
2022/01/23 14:14:20;;;;;;;;;30.50;22.50;;;;;7.43;63.93;103084.66;5004224;28;45334;-61
2022/01/23 14:16:48;;;;;;;;;23.50;18.75;;;;;7.43;63.76;103075.91;5003977;28;45403;-61
2022/01/23 14:19:25;;;;;;;;;26.75;20.75;;;;;7.45;63.90;103074.13;5018757;28;47010;-61
2022/01/23 14:21:59;;;;;;;;;22.75;16.75;;;;;7.46;63.88;103078.50;5003992;28;45498;-60
2022/01/23 14:24:36;;;;;;;;;26.75;21.75;;;;;7.47;63.70;103080.22;5003873;28;45323;-60
2022/01/23 14:27:08;;;;;;;;;21.75;20.00;;;;;7.47;63.89;103072.38;5004101;28;45328;-60
2022/01/23 14:29:55;;;;;;;;;25.00;22.25;;;;;7.50;63.77;103069.69;5010599;28;45429;-60
2022/01/23 14:32:40;;;;;;;;;22.50;18.75;;;;;7.49;63.51;103073.22;5023487;28;45273;-60
2022/01/23 14:35:29;;;;;;;;;24.75;20.25;;;;;7.46;63.61;103065.38;5023658;28;45423;-60
2022/01/23 14:38:08;;;;;;;;;25.00;17.00;;;;;7.44;63.68;103065.41;5023428;28;45502;-60
2022/01/23 14:40:34;;;;;;;;;20.25;11.25;;;;;7.49;63.78;103065.34;5019223;28;45438;-60
2022/01/23 14:43:10;;;;;;;;;23.50;19.25;;;;;7.48;63.53;103059.22;5002403;28;45345;-60
2022/01/23 14:45:45;;;;;;;;;23.50;20.00;;;;;7.46;63.30;103063.63;5003601;28;45442;-60